sensor_id;sensor_type;location;lat;lon;timestamp;pressure;altitude;pressure_sealevel;temperature;humidity
65175;BME280;51761;42.126;24.752;2022-07-29T00:01:46;99660.88;;;23.32;60.96
65175;BME280;51761;42.126;24.752;2022-07-29T00:04:12;99620.53;;;23.08;61.13
65175;BME280;51761;42.126;24.752;2022-07-29T00:06:37;99658.81;;;23.33;61.09
65175;BME280;51761;42.126;24.752;2022-07-29T00:09:03;99629.81;;;23.03;61.59
65175;BME280;51761;42.126;24.752;2022-07-29T00:11:29;99653.31;;;23.24;61.73
65175;BME280;51761;42.126;24.752;2022-07-29T00:13:54;99656.00;;;23.07;62.14
65175;BME280;51761;42.126;24.752;2022-07-29T00:16:20;99649.91;;;23.20;61.58
65175;BME280;51761;42.126;24.752;2022-07-29T00:18:45;99635.50;;;22.98;61.95
65175;BME280;51761;42.126;24.752;2022-07-29T00:21:11;99661.03;;;23.12;61.79
65175;BME280;51761;42.126;24.752;2022-07-29T00:23:36;99655.34;;;23.18;61.89
65175;BME280;51761;42.126;24.752;2022-07-29T00:26:02;99650.72;;;23.20;61.74
65175;BME280;51761;42.126;24.752;2022-07-29T00:28:27;99633.38;;;22.93;62.33
65175;BME280;51761;42.126;24.752;2022-07-29T00:30:53;99646.16;;;23.08;62.15
65175;BME280;51761;42.126;24.752;2022-07-29T00:33:18;99613.41;;;22.87;62.26
65175;BME280;51761;42.126;24.752;2022-07-29T00:35:44;99648.00;;;23.06;62.30
65175;BME280;51761;42.126;24.752;2022-07-29T00:38:14;99651.38;;;23.10;63.39
65175;BME280;51761;42.126;24.752;2022-07-29T00:40:40;99618.97;;;23.02;62.04
65175;BME280;51761;42.126;24.752;2022-07-29T00:43:06;99618.69;;;23.05;63.33
65175;BME280;51761;42.126;24.752;2022-07-29T00:45:32;99658.00;;;23.27;62.11
65175;BME280;51761;42.126;24.752;2022-07-29T00:47:58;99624.66;;;23.07;61.64
65175;BME280;51761;42.126;24.752;2022-07-29T00:50:24;99622.81;;;22.99;62.17
65175;BME280;51761;42.126;24.752;2022-07-29T00:52:50;99637.44;;;23.12;61.69
65175;BME280;51761;42.126;24.752;2022-07-29T00:55:16;99648.75;;;23.06;61.52
65175;BME280;51761;42.126;24.752;2022-07-29T00:57:42;99626.88;;;22.87;62.10
65175;BME280;51761;42.126;24.752;2022-07-29T01:00:18;99647.16;;;23.00;63.12
65175;BME280;51761;42.126;24.752;2022-07-29T01:02:45;99636.78;;;22.97;62.84
65175;BME280;51761;42.126;24.752;2022-07-29T01:05:13;99635.66;;;22.83;62.46
65175;BME280;51761;42.126;24.752;2022-07-29T01:07:40;99622.38;;;22.75;62.80
65175;BME280;51761;42.126;24.752;2022-07-29T01:10:08;99634.50;;;23.01;62.39
65175;BME280;51761;42.126;24.752;2022-07-29T01:12:35;99652.75;;;22.89;62.65
65175;BME280;51761;42.126;24.752;2022-07-29T01:15:03;99647.03;;;22.83;62.67
65175;BME280;51761;42.126;24.752;2022-07-29T01:20:20;99650.56;;;23.04;62.86
65175;BME280;51761;42.126;24.752;2022-07-29T01:23:11;99665.13;;;22.80;62.67
65175;BME280;51761;42.126;24.752;2022-07-29T01:31:05;99656.34;;;22.84;63.57
65175;BME280;51761;42.126;24.752;2022-07-29T01:33:35;99646.66;;;22.70;63.17
65175;BME280;51761;42.126;24.752;2022-07-29T01:36:25;99671.25;;;22.99;64.48
65175;BME280;51761;42.126;24.752;2022-07-29T01:39:34;99645.97;;;22.81;63.04
65175;BME280;51761;42.126;24.752;2022-07-29T01:42:14;99663.47;;;22.99;63.11
65175;BME280;51761;42.126;24.752;2022-07-29T01:45:10;99653.50;;;23.15;62.36
65175;BME280;51761;42.126;24.752;2022-07-29T01:47:41;99650.84;;;23.06;63.36
65175;BME280;51761;42.126;24.752;2022-07-29T01:50:10;99642.75;;;22.99;62.86
65175;BME280;51761;42.126;24.752;2022-07-29T01:52:44;99642.78;;;23.04;62.72
65175;BME280;51761;42.126;24.752;2022-07-29T01:55:15;99646.63;;;23.32;65.55
65175;BME280;51761;42.126;24.752;2022-07-29T01:57:44;99648.63;;;23.21;62.42
65175;BME280;51761;42.126;24.752;2022-07-29T02:00:11;99639.53;;;23.17;65.86
65175;BME280;51761;42.126;24.752;2022-07-29T02:02:39;99648.47;;;23.35;66.90
65175;BME280;51761;42.126;24.752;2022-07-29T02:05:07;99642.50;;;23.33;64.27
65175;BME280;51761;42.126;24.752;2022-07-29T02:07:36;99655.97;;;23.33;62.60
65175;BME280;51761;42.126;24.752;2022-07-29T02:10:04;99653.44;;;23.40;62.61
65175;BME280;51761;42.126;24.752;2022-07-29T02:12:32;99641.63;;;23.22;61.58
65175;BME280;51761;42.126;24.752;2022-07-29T02:15:00;99644.19;;;23.14;62.22
65175;BME280;51761;42.126;24.752;2022-07-29T02:17:31;99639.53;;;23.17;61.59
65175;BME280;51761;42.126;24.752;2022-07-29T02:20:00;99643.13;;;23.12;62.03
65175;BME280;51761;42.126;24.752;2022-07-29T02:22:29;99641.09;;;23.18;61.70
65175;BME280;51761;42.126;24.752;2022-07-29T02:24:55;99638.50;;;23.14;61.50
65175;BME280;51761;42.126;24.752;2022-07-29T02:27:23;99637.34;;;23.01;61.93
65175;BME280;51761;42.126;24.752;2022-07-29T02:29:51;99604.56;;;22.80;62.79
65175;BME280;51761;42.126;24.752;2022-07-29T02:32:17;99609.81;;;22.92;62.19
65175;BME280;51761;42.126;24.752;2022-07-29T02:34:45;99630.97;;;23.17;62.47
65175;BME280;51761;42.126;24.752;2022-07-29T02:37:12;99607.50;;;22.96;62.07
65175;BME280;51761;42.126;24.752;2022-07-29T02:39:40;99629.88;;;23.09;62.22
65175;BME280;51761;42.126;24.752;2022-07-29T02:42:10;99632.28;;;23.16;62.07
65175;BME280;51761;42.126;24.752;2022-07-29T02:44:38;99562.81;;;22.71;62.89
65175;BME280;51761;42.126;24.752;2022-07-29T02:47:23;99628.59;;;23.10;62.98
65175;BME280;51761;42.126;24.752;2022-07-29T02:50:12;99632.91;;;23.31;61.67
65175;BME280;51761;42.126;24.752;2022-07-29T02:52:42;99633.34;;;23.24;62.87
65175;BME280;51761;42.126;24.752;2022-07-29T02:56:04;99635.41;;;23.18;62.74
65175;BME280;51761;42.126;24.752;2022-07-29T02:58:33;99602.78;;;22.88;64.00
65175;BME280;51761;42.126;24.752;2022-07-29T03:01:11;99644.41;;;23.11;63.79
65175;BME280;51761;42.126;24.752;2022-07-29T03:03:40;99636.50;;;23.26;64.29
65175;BME280;51761;42.126;24.752;2022-07-29T03:06:08;99587.50;;;22.85;63.06
65175;BME280;51761;42.126;24.752;2022-07-29T03:08:34;99636.25;;;23.29;64.11
65175;BME280;51761;42.126;24.752;2022-07-29T03:11:01;99645.06;;;23.26;65.13
65175;BME280;51761;42.126;24.752;2022-07-29T03:13:27;99651.84;;;23.39;65.58
65175;BME280;51761;42.126;24.752;2022-07-29T03:15:53;99643.16;;;23.59;69.51
65175;BME280;51761;42.126;24.752;2022-07-29T03:18:20;99615.69;;;23.62;65.57
65175;BME280;51761;42.126;24.752;2022-07-29T03:20:46;99638.50;;;23.67;62.24
65175;BME280;51761;42.126;24.752;2022-07-29T03:23:12;99648.16;;;23.75;62.86
65175;BME280;51761;42.126;24.752;2022-07-29T03:25:43;99606.34;;;23.56;63.23
65175;BME280;51761;42.126;24.752;2022-07-29T03:28:08;99646.13;;;23.81;62.31
65175;BME280;51761;42.126;24.752;2022-07-29T03:30:34;99652.28;;;23.69;63.49
65175;BME280;51761;42.126;24.752;2022-07-29T03:32:59;99664.50;;;23.80;64.92
65175;BME280;51761;42.126;24.752;2022-07-29T03:35:26;99661.63;;;23.75;64.98
65175;BME280;51761;42.126;24.752;2022-07-29T03:37:51;99665.88;;;23.85;65.02
65175;BME280;51761;42.126;24.752;2022-07-29T03:40:24;99666.94;;;23.93;63.26
65175;BME280;51761;42.126;24.752;2022-07-29T03:42:52;99666.63;;;23.85;64.03
65175;BME280;51761;42.126;24.752;2022-07-29T03:45:20;99659.13;;;23.93;61.72
65175;BME280;51761;42.126;24.752;2022-07-29T03:47:49;99640.13;;;23.79;64.21
65175;BME280;51761;42.126;24.752;2022-07-29T03:50:16;99663.06;;;23.96;63.87
65175;BME280;51761;42.126;24.752;2022-07-29T03:52:43;99666.38;;;23.83;61.61
65175;BME280;51761;42.126;24.752;2022-07-29T03:55:09;99662.25;;;23.90;62.01
65175;BME280;51761;42.126;24.752;2022-07-29T03:57:35;99672.28;;;23.80;60.97
65175;BME280;51761;42.126;24.752;2022-07-29T04:00:03;99641.63;;;23.64;62.77
65175;BME280;51761;42.126;24.752;2022-07-29T04:02:31;99672.53;;;23.76;61.97
65175;BME280;51761;42.126;24.752;2022-07-29T04:04:57;99676.75;;;23.86;64.12
65175;BME280;51761;42.126;24.752;2022-07-29T04:07:22;99588.41;;;23.50;60.71
65175;BME280;51761;42.126;24.752;2022-07-29T04:09:48;99644.78;;;23.71;62.14
65175;BME280;51761;42.126;24.752;2022-07-29T04:12:13;99654.56;;;23.59;62.86
65175;BME280;51761;42.126;24.752;2022-07-29T04:14:39;99685.72;;;23.68;61.30
65175;BME280;51761;42.126;24.752;2022-07-29T04:17:05;99673.75;;;23.64;61.79
65175;BME280;51761;42.126;24.752;2022-07-29T04:19:31;99662.91;;;23.68;62.15
65175;BME280;51761;42.126;24.752;2022-07-29T04:21:57;99687.28;;;23.75;62.18
65175;BME280;51761;42.126;24.752;2022-07-29T04:24:23;99675.84;;;23.64;61.97
65175;BME280;51761;42.126;24.752;2022-07-29T04:26:48;99664.22;;;23.73;62.38
65175;BME280;51761;42.126;24.752;2022-07-29T04:29:14;99680.56;;;23.72;62.37
65175;BME280;51761;42.126;24.752;2022-07-29T04:31:43;99685.56;;;23.83;63.50
65175;BME280;51761;42.126;24.752;2022-07-29T04:34:09;99680.66;;;23.89;61.80
65175;BME280;51761;42.126;24.752;2022-07-29T04:36:35;99686.63;;;23.91;63.62
65175;BME280;51761;42.126;24.752;2022-07-29T04:39:01;99679.19;;;24.04;61.90
65175;BME280;51761;42.126;24.752;2022-07-29T04:41:27;99650.81;;;23.84;62.28
65175;BME280;51761;42.126;24.752;2022-07-29T04:43:53;99656.47;;;23.79;63.00
65175;BME280;51761;42.126;24.752;2022-07-29T04:46:19;99689.75;;;23.93;61.38
65175;BME280;51761;42.126;24.752;2022-07-29T04:48:47;99702.22;;;24.01;61.77
65175;BME280;51761;42.126;24.752;2022-07-29T04:51:14;99684.63;;;24.08;61.39
65175;BME280;51761;42.126;24.752;2022-07-29T04:53:39;99660.19;;;23.96;61.52
65175;BME280;51761;42.126;24.752;2022-07-29T04:56:05;99700.75;;;24.22;58.52
65175;BME280;51761;42.126;24.752;2022-07-29T04:58:30;99704.94;;;24.31;60.91
65175;BME280;51761;42.126;24.752;2022-07-29T05:00:56;99708.31;;;24.35;60.76
65175;BME280;51761;42.126;24.752;2022-07-29T05:03:22;99698.69;;;24.22;59.36
65175;BME280;51761;42.126;24.752;2022-07-29T05:05:47;99700.56;;;24.41;58.76
65175;BME280;51761;42.126;24.752;2022-07-29T05:08:13;99703.22;;;24.56;58.61
65175;BME280;51761;42.126;24.752;2022-07-29T05:10:38;99704.78;;;24.68;60.23
65175;BME280;51761;42.126;24.752;2022-07-29T05:13:07;99708.94;;;24.78;58.64
65175;BME280;51761;42.126;24.752;2022-07-29T05:15:33;99703.25;;;24.83;57.77
65175;BME280;51761;42.126;24.752;2022-07-29T05:18:00;99705.09;;;24.97;57.63
65175;BME280;51761;42.126;24.752;2022-07-29T05:20:26;99693.13;;;24.93;58.65
65175;BME280;51761;42.126;24.752;2022-07-29T05:22:57;99712.59;;;25.06;57.40
65175;BME280;51761;42.126;24.752;2022-07-29T05:25:26;99716.53;;;25.08;58.16
65175;BME280;51761;42.126;24.752;2022-07-29T05:27:52;99697.03;;;25.07;57.69
65175;BME280;51761;42.126;24.752;2022-07-29T05:30:18;99710.28;;;25.37;59.93
65175;BME280;51761;42.126;24.752;2022-07-29T05:32:44;99711.31;;;25.51;58.66
65175;BME280;51761;42.126;24.752;2022-07-29T05:35:10;99701.94;;;25.67;56.15
65175;BME280;51761;42.126;24.752;2022-07-29T05:37:35;99710.97;;;25.82;56.95
65175;BME280;51761;42.126;24.752;2022-07-29T05:40:02;99713.34;;;25.83;55.02
65175;BME280;51761;42.126;24.752;2022-07-29T05:42:27;99705.25;;;25.92;57.53
65175;BME280;51761;42.126;24.752;2022-07-29T05:44:54;99710.69;;;25.96;56.09
65175;BME280;51761;42.126;24.752;2022-07-29T05:47:20;99711.75;;;25.98;55.72
65175;BME280;51761;42.126;24.752;2022-07-29T05:49:45;99722.38;;;26.09;56.00
65175;BME280;51761;42.126;24.752;2022-07-29T05:52:11;99717.34;;;26.20;54.83
65175;BME280;51761;42.126;24.752;2022-07-29T05:54:38;99729.78;;;26.34;55.82
65175;BME280;51761;42.126;24.752;2022-07-29T05:57:05;99736.56;;;26.31;54.53
65175;BME280;51761;42.126;24.752;2022-07-29T05:59:34;99711.53;;;26.37;54.88
65175;BME280;51761;42.126;24.752;2022-07-29T06:02:00;99734.88;;;26.63;54.74
65175;BME280;51761;42.126;24.752;2022-07-29T06:04:26;99706.53;;;26.54;53.27
65175;BME280;51761;42.126;24.752;2022-07-29T06:06:51;99732.41;;;26.83;52.49
65175;BME280;51761;42.126;24.752;2022-07-29T06:09:17;99701.78;;;26.67;52.16
65175;BME280;51761;42.126;24.752;2022-07-29T06:11:43;99714.28;;;26.70;53.66
65175;BME280;51761;42.126;24.752;2022-07-29T06:14:09;99703.34;;;26.63;52.36
65175;BME280;51761;42.126;24.752;2022-07-29T06:16:34;99715.97;;;26.84;52.49
65175;BME280;51761;42.126;24.752;2022-07-29T06:19:00;99701.88;;;26.45;52.53
65175;BME280;51761;42.126;24.752;2022-07-29T06:21:25;99731.25;;;26.57;53.25
65175;BME280;51761;42.126;24.752;2022-07-29T06:23:51;99730.41;;;26.73;53.12
65175;BME280;51761;42.126;24.752;2022-07-29T06:26:16;99732.78;;;26.63;54.04
65175;BME280;51761;42.126;24.752;2022-07-29T06:28:42;99734.28;;;26.75;55.73
65175;BME280;51761;42.126;24.752;2022-07-29T06:31:07;99714.81;;;26.63;53.22
65175;BME280;51761;42.126;24.752;2022-07-29T06:33:33;99702.03;;;26.64;52.47
65175;BME280;51761;42.126;24.752;2022-07-29T06:35:58;99731.34;;;26.86;53.28
65175;BME280;51761;42.126;24.752;2022-07-29T06:38:24;99728.13;;;27.01;54.09
65175;BME280;51761;42.126;24.752;2022-07-29T06:40:50;99696.03;;;27.02;52.95
65175;BME280;51761;42.126;24.752;2022-07-29T06:43:29;99722.97;;;27.29;52.09
65175;BME280;51761;42.126;24.752;2022-07-29T06:46:00;99702.28;;;27.36;51.31
65175;BME280;51761;42.126;24.752;2022-07-29T06:48:27;99724.38;;;27.46;51.98
65175;BME280;51761;42.126;24.752;2022-07-29T06:50:53;99727.34;;;27.59;52.43
65175;BME280;51761;42.126;24.752;2022-07-29T06:53:19;99722.00;;;27.98;50.42
65175;BME280;51761;42.126;24.752;2022-07-29T06:55:44;99720.25;;;28.13;50.87
65175;BME280;51761;42.126;24.752;2022-07-29T06:58:10;99690.28;;;28.09;49.81
65175;BME280;51761;42.126;24.752;2022-07-29T07:00:36;99723.34;;;28.39;48.58
65175;BME280;51761;42.126;24.752;2022-07-29T07:03:02;99704.53;;;28.75;47.38
65175;BME280;51761;42.126;24.752;2022-07-29T07:05:27;99694.91;;;29.80;45.01
65175;BME280;51761;42.126;24.752;2022-07-29T07:07:53;99719.56;;;30.66;43.10
65175;BME280;51761;42.126;24.752;2022-07-29T07:10:18;99715.97;;;30.86;43.50
65175;BME280;51761;42.126;24.752;2022-07-29T07:12:44;99697.06;;;31.59;41.63
65175;BME280;51761;42.126;24.752;2022-07-29T07:15:10;99686.50;;;32.18;39.49
65175;BME280;51761;42.126;24.752;2022-07-29T07:17:35;99718.34;;;33.18;37.77
65175;BME280;51761;42.126;24.752;2022-07-29T07:20:01;99712.03;;;34.57;34.91
65175;BME280;51761;42.126;24.752;2022-07-29T07:22:27;99701.72;;;35.42;34.32
65175;BME280;51761;42.126;24.752;2022-07-29T07:24:52;99707.13;;;35.70;34.04
65175;BME280;51761;42.126;24.752;2022-07-29T07:27:18;99718.19;;;34.75;34.94
65175;BME280;51761;42.126;24.752;2022-07-29T07:29:43;99712.75;;;35.68;33.48
65175;BME280;51761;42.126;24.752;2022-07-29T07:32:09;99710.94;;;34.91;34.32
65175;BME280;51761;42.126;24.752;2022-07-29T07:34:34;99701.09;;;35.43;33.76
65175;BME280;51761;42.126;24.752;2022-07-29T07:36:59;99701.75;;;35.83;31.81
65175;BME280;51761;42.126;24.752;2022-07-29T07:39:25;99680.22;;;35.86;30.99
65175;BME280;51761;42.126;24.752;2022-07-29T07:41:51;99684.53;;;36.02;31.19
65175;BME280;51761;42.126;24.752;2022-07-29T07:44:17;99696.00;;;36.17;30.88
65175;BME280;51761;42.126;24.752;2022-07-29T07:46:42;99706.53;;;36.46;30.50
65175;BME280;51761;42.126;24.752;2022-07-29T07:49:10;99702.13;;;36.72;30.11
65175;BME280;51761;42.126;24.752;2022-07-29T07:51:36;99674.94;;;36.43;29.62
65175;BME280;51761;42.126;24.752;2022-07-29T07:54:01;99708.28;;;36.76;29.94
65175;BME280;51761;42.126;24.752;2022-07-29T07:56:27;99690.66;;;35.89;30.13
65175;BME280;51761;42.126;24.752;2022-07-29T07:58:53;99683.63;;;36.77;29.39
65175;BME280;51761;42.126;24.752;2022-07-29T08:01:18;99691.03;;;37.04;29.17
65175;BME280;51761;42.126;24.752;2022-07-29T08:03:46;99676.31;;;36.25;29.64
65175;BME280;51761;42.126;24.752;2022-07-29T08:06:11;99701.88;;;35.93;29.42
65175;BME280;51761;42.126;24.752;2022-07-29T08:08:37;99699.94;;;36.12;28.86
65175;BME280;51761;42.126;24.752;2022-07-29T08:11:02;99687.88;;;36.49;28.13
65175;BME280;51761;42.126;24.752;2022-07-29T08:13:29;99699.94;;;35.46;29.19
65175;BME280;51761;42.126;24.752;2022-07-29T08:15:56;99697.53;;;35.28;28.08
65175;BME280;51761;42.126;24.752;2022-07-29T08:18:36;99692.63;;;35.13;28.13
65175;BME280;51761;42.126;24.752;2022-07-29T08:21:02;99710.69;;;34.97;28.83
65175;BME280;51761;42.126;24.752;2022-07-29T08:23:28;99681.66;;;35.53;29.35
65175;BME280;51761;42.126;24.752;2022-07-29T08:26:00;99700.41;;;36.01;28.84
65175;BME280;51761;42.126;24.752;2022-07-29T08:28:26;99689.91;;;35.64;29.92
65175;BME280;51761;42.126;24.752;2022-07-29T08:30:52;99700.53;;;36.61;27.97
65175;BME280;51761;42.126;24.752;2022-07-29T08:33:17;99685.78;;;36.42;28.86
65175;BME280;51761;42.126;24.752;2022-07-29T08:35:43;99686.06;;;36.03;26.81
65175;BME280;51761;42.126;24.752;2022-07-29T08:38:08;99682.72;;;35.90;27.20
65175;BME280;51761;42.126;24.752;2022-07-29T08:40:35;99681.03;;;35.62;28.83
65175;BME280;51761;42.126;24.752;2022-07-29T08:43:05;99679.25;;;36.08;27.57
65175;BME280;51761;42.126;24.752;2022-07-29T08:45:42;99681.16;;;36.06;26.30
65175;BME280;51761;42.126;24.752;2022-07-29T08:48:09;99678.34;;;35.98;26.52
65175;BME280;51761;42.126;24.752;2022-07-29T08:50:36;99675.44;;;35.98;27.59
65175;BME280;51761;42.126;24.752;2022-07-29T08:53:03;99672.56;;;36.15;27.74
65175;BME280;51761;42.126;24.752;2022-07-29T08:55:30;99666.53;;;35.96;27.89
65175;BME280;51761;42.126;24.752;2022-07-29T08:57:56;99661.16;;;36.60;27.15
65175;BME280;51761;42.126;24.752;2022-07-29T09:00:23;99636.72;;;36.13;27.74
65175;BME280;51761;42.126;24.752;2022-07-29T09:02:57;99665.28;;;35.90;27.54
65175;BME280;51761;42.126;24.752;2022-07-29T09:05:24;99653.81;;;35.92;26.87
65175;BME280;51761;42.126;24.752;2022-07-29T09:07:51;99648.00;;;35.26;26.36
65175;BME280;51761;42.126;24.752;2022-07-29T09:10:17;99662.78;;;34.88;26.95
65175;BME280;51761;42.126;24.752;2022-07-29T09:12:43;99634.66;;;34.67;28.01
65175;BME280;51761;42.126;24.752;2022-07-29T09:15:09;99643.44;;;34.83;28.34
65175;BME280;51761;42.126;24.752;2022-07-29T09:20:19;99633.75;;;35.13;27.21
65175;BME280;51761;42.126;24.752;2022-07-29T09:22:45;99642.44;;;35.20;26.67
65175;BME280;51761;42.126;24.752;2022-07-29T09:25:31;99632.97;;;35.12;26.08
65175;BME280;51761;42.126;24.752;2022-07-29T09:28:06;99625.47;;;34.46;26.16
65175;BME280;51761;42.126;24.752;2022-07-29T09:30:32;99651.34;;;34.90;26.31
65175;BME280;51761;42.126;24.752;2022-07-29T09:32:59;99612.16;;;34.74;26.77
65175;BME280;51761;42.126;24.752;2022-07-29T09:35:29;99630.66;;;34.86;26.25
65175;BME280;51761;42.126;24.752;2022-07-29T09:37:55;99634.16;;;34.85;25.83
65175;BME280;51761;42.126;24.752;2022-07-29T09:40:27;99641.22;;;34.59;26.32
65175;BME280;51761;42.126;24.752;2022-07-29T09:42:54;99622.00;;;34.79;27.10
65175;BME280;51761;42.126;24.752;2022-07-29T09:47:52;99632.41;;;35.38;26.45
65175;BME280;51761;42.126;24.752;2022-07-29T09:50:17;99595.38;;;34.97;26.49
65175;BME280;51761;42.126;24.752;2022-07-29T09:52:52;99623.13;;;35.57;25.84
65175;BME280;51761;42.126;24.752;2022-07-29T09:55:21;99617.75;;;35.04;24.89
65175;BME280;51761;42.126;24.752;2022-07-29T09:57:46;99621.50;;;35.22;25.06
65175;BME280;51761;42.126;24.752;2022-07-29T10:00:14;99612.19;;;35.48;26.32
65175;BME280;51761;42.126;24.752;2022-07-29T10:02:42;99588.66;;;35.61;24.62
65175;BME280;51761;42.126;24.752;2022-07-29T10:07:49;99614.13;;;35.70;24.40
65175;BME280;51761;42.126;24.752;2022-07-29T10:10:35;99613.81;;;35.58;24.29
65175;BME280;51761;42.126;24.752;2022-07-29T10:13:03;99611.25;;;34.96;25.46
65175;BME280;51761;42.126;24.752;2022-07-29T10:15:31;99602.00;;;35.39;26.97
65175;BME280;51761;42.126;24.752;2022-07-29T10:17:58;99583.53;;;35.44;25.75
65175;BME280;51761;42.126;24.752;2022-07-29T10:20:26;99596.06;;;35.71;25.75
65175;BME280;51761;42.126;24.752;2022-07-29T10:22:52;99598.94;;;35.54;23.47
65175;BME280;51761;42.126;24.752;2022-07-29T10:25:19;99599.50;;;35.77;25.14
65175;BME280;51761;42.126;24.752;2022-07-29T10:27:46;99573.69;;;35.81;24.57
65175;BME280;51761;42.126;24.752;2022-07-29T10:30:14;99587.78;;;35.85;24.33
65175;BME280;51761;42.126;24.752;2022-07-29T10:38:15;99584.47;;;35.88;25.60
65175;BME280;51761;42.126;24.752;2022-07-29T10:41:12;99590.28;;;36.05;26.07
65175;BME280;51761;42.126;24.752;2022-07-29T10:43:56;99559.16;;;35.81;25.30
65175;BME280;51761;42.126;24.752;2022-07-29T10:46:22;99581.31;;;35.94;25.13
65175;BME280;51761;42.126;24.752;2022-07-29T10:49:24;99561.66;;;35.68;25.55
65175;BME280;51761;42.126;24.752;2022-07-29T10:54:17;99543.56;;;35.35;26.46
65175;BME280;51761;42.126;24.752;2022-07-29T10:56:43;99523.41;;;35.20;26.17
65175;BME280;51761;42.126;24.752;2022-07-29T11:01:44;99559.38;;;35.59;26.45
65175;BME280;51761;42.126;24.752;2022-07-29T11:04:10;99550.28;;;35.62;27.15
65175;BME280;51761;42.126;24.752;2022-07-29T11:09:27;99543.81;;;36.15;26.58
65175;BME280;51761;42.126;24.752;2022-07-29T11:11:58;99511.16;;;36.24;26.11
65175;BME280;51761;42.126;24.752;2022-07-29T11:14:56;99533.88;;;36.61;25.83
65175;BME280;51761;42.126;24.752;2022-07-29T11:17:22;99543.81;;;36.15;26.51
65175;BME280;51761;42.126;24.752;2022-07-29T11:19:47;99524.81;;;36.31;26.92
65175;BME280;51761;42.126;24.752;2022-07-29T11:22:32;99533.75;;;36.42;27.28
65175;BME280;51761;42.126;24.752;2022-07-29T11:25:17;99501.59;;;36.40;27.68
65175;BME280;51761;42.126;24.752;2022-07-29T11:27:46;99514.66;;;36.48;27.56
65175;BME280;51761;42.126;24.752;2022-07-29T11:30:12;99530.19;;;36.34;26.61
65175;BME280;51761;42.126;24.752;2022-07-29T11:32:40;99524.88;;;35.97;25.75
65175;BME280;51761;42.126;24.752;2022-07-29T11:35:18;99514.69;;;35.71;27.51
65175;BME280;51761;42.126;24.752;2022-07-29T11:38:24;99507.50;;;36.06;27.49
65175;BME280;51761;42.126;24.752;2022-07-29T11:41:19;99515.09;;;36.02;26.84
65175;BME280;51761;42.126;24.752;2022-07-29T11:43:58;99511.06;;;35.97;26.67
65175;BME280;51761;42.126;24.752;2022-07-29T11:46:53;99504.78;;;35.91;26.83
65175;BME280;51761;42.126;24.752;2022-07-29T11:49:24;99500.13;;;35.62;26.15
65175;BME280;51761;42.126;24.752;2022-07-29T11:51:55;99474.78;;;35.21;26.68
65175;BME280;51761;42.126;24.752;2022-07-29T11:54:26;99496.56;;;35.29;26.76
65175;BME280;51761;42.126;24.752;2022-07-29T11:56:57;99467.13;;;34.91;27.00
65175;BME280;51761;42.126;24.752;2022-07-29T11:59:24;99480.63;;;34.72;27.43
65175;BME280;51761;42.126;24.752;2022-07-29T12:04:19;99454.16;;;34.92;27.24
65175;BME280;51761;42.126;24.752;2022-07-29T12:06:52;99450.63;;;35.52;27.53
65175;BME280;51761;42.126;24.752;2022-07-29T12:09:18;99468.97;;;35.89;26.44
65175;BME280;51761;42.126;24.752;2022-07-29T12:11:45;99476.84;;;35.79;26.53
65175;BME280;51761;42.126;24.752;2022-07-29T12:14:33;99455.34;;;35.91;26.53
65175;BME280;51761;42.126;24.752;2022-07-29T12:16:59;99469.47;;;35.78;26.31
65175;BME280;51761;42.126;24.752;2022-07-29T12:19:28;99441.19;;;35.78;26.24
65175;BME280;51761;42.126;24.752;2022-07-29T12:21:54;99480.06;;;35.83;25.76
65175;BME280;51761;42.126;24.752;2022-07-29T12:24:21;99444.38;;;35.39;25.04
65175;BME280;51761;42.126;24.752;2022-07-29T12:26:57;99445.66;;;35.62;25.47
65175;BME280;51761;42.126;24.752;2022-07-29T12:29:23;99475.69;;;35.91;25.52
65175;BME280;51761;42.126;24.752;2022-07-29T12:31:53;99482.94;;;36.00;26.03
65175;BME280;51761;42.126;24.752;2022-07-29T12:34:22;99442.56;;;35.77;26.27
65175;BME280;51761;42.126;24.752;2022-07-29T12:36:48;99457.38;;;36.15;26.39
65175;BME280;51761;42.126;24.752;2022-07-29T12:39:18;99462.13;;;36.20;25.74
65175;BME280;51761;42.126;24.752;2022-07-29T12:41:44;99452.75;;;36.12;26.66
65175;BME280;51761;42.126;24.752;2022-07-29T12:44:10;99414.75;;;35.84;25.75
65175;BME280;51761;42.126;24.752;2022-07-29T12:46:36;99449.59;;;35.74;26.14
65175;BME280;51761;42.126;24.752;2022-07-29T12:49:03;99432.06;;;35.48;26.07
65175;BME280;51761;42.126;24.752;2022-07-29T12:56:30;99430.19;;;35.60;26.86
65175;BME280;51761;42.126;24.752;2022-07-29T12:58:56;99415.59;;;35.50;27.21
65175;BME280;51761;42.126;24.752;2022-07-29T13:01:22;99427.50;;;35.88;26.82
65175;BME280;51761;42.126;24.752;2022-07-29T13:03:55;99427.97;;;36.11;26.29
65175;BME280;51761;42.126;24.752;2022-07-29T13:14:02;99413.38;;;35.85;26.75
65175;BME280;51761;42.126;24.752;2022-07-29T13:16:28;99387.47;;;35.70;26.75
65175;BME280;51761;42.126;24.752;2022-07-29T13:19:11;99416.25;;;36.02;26.27
65175;BME280;51761;42.126;24.752;2022-07-29T13:21:38;99412.63;;;35.84;26.32
65175;BME280;51761;42.126;24.752;2022-07-29T13:24:07;99410.69;;;36.13;26.07
65175;BME280;51761;42.126;24.752;2022-07-29T13:26:33;99401.63;;;36.45;25.92
65175;BME280;51761;42.126;24.752;2022-07-29T13:28:59;99397.34;;;36.10;26.58
65175;BME280;51761;42.126;24.752;2022-07-29T13:31:25;99401.59;;;35.83;26.93
65175;BME280;51761;42.126;24.752;2022-07-29T13:33:50;99397.63;;;35.78;26.56
65175;BME280;51761;42.126;24.752;2022-07-29T13:36:16;99383.94;;;35.71;26.58
65175;BME280;51761;42.126;24.752;2022-07-29T13:38:41;99379.06;;;35.74;27.53
65175;BME280;51761;42.126;24.752;2022-07-29T13:41:07;99385.00;;;35.93;27.14
65175;BME280;51761;42.126;24.752;2022-07-29T13:43:32;99358.66;;;35.64;27.14